Time;durP1;ratioP1;P1;durP2;ratioP2;P2;SDS_P1;SDS_P2;PMS_P1;PMS_P2;Temp;Humidity;BMP_temperature;BMP_pressure;BME280_temperature;BME280_humidity;BME280_pressure;Samples;Min_cycle;Max_cycle;Signal;HPM_P1;HPM_P2
2022/10/25 00:02:18;;;;;;;0.70;0.60;;;12.20;99.90;;;;;;4844760;29;20489;-86
2022/10/25 00:04:44;;;;;;;1.15;0.77;;;12.20;99.90;;;;;;4829984;29;20057;-86
2022/10/25 00:07:10;;;;;;;0.30;0.30;;;12.20;99.90;;;;;;4844509;29;20154;-86
2022/10/25 00:09:35;;;;;;;1.57;0.60;;;12.20;99.90;;;;;;4844237;29;20176;-86
2022/10/25 00:12:01;;;;;;;0.60;0.43;;;12.20;99.90;;;;;;4842519;29;20077;-86
2022/10/25 00:14:30;;;;;;;0.28;0.20;;;12.20;99.90;;;;;;4828079;29;20206;-86
2022/10/25 00:16:56;;;;;;;0.33;0.30;;;12.10;99.90;;;;;;4829261;29;20136;-85
2022/10/25 00:19:21;;;;;;;1.13;0.97;;;12.10;99.90;;;;;;4813649;29;20053;-86
2022/10/25 00:21:47;;;;;;;1.27;0.70;;;12.10;99.90;;;;;;4826433;29;20133;-86
2022/10/25 00:24:14;;;;;;;2.33;0.70;;;12.10;99.90;;;;;;4826519;29;20052;-86
2022/10/25 00:26:40;;;;;;;0.40;0.40;;;12.10;99.90;;;;;;4828204;29;20116;-86
2022/10/25 00:29:10;;;;;;;0.40;0.30;;;12.10;99.90;;;;;;4813577;29;20042;-87
2022/10/25 00:31:36;;;;;;;0.85;0.68;;;12.10;99.90;;;;;;4844072;29;20088;-86
2022/10/25 00:34:03;;;;;;;0.90;0.40;;;12.20;99.90;;;;;;4814138;29;20488;-86
2022/10/25 00:36:28;;;;;;;0.73;0.55;;;12.20;99.90;;;;;;4843475;29;20508;-86
2022/10/25 00:38:56;;;;;;;1.20;0.57;;;12.20;99.90;;;;;;4828765;29;20088;-86
2022/10/25 00:41:26;;;;;;;1.92;0.75;;;12.20;99.90;;;;;;4842965;29;20045;-86
2022/10/25 00:44:16;;;;;;;0.50;0.47;;;12.20;99.90;;;;;;4828802;29;20144;-86
2022/10/25 00:46:42;;;;;;;1.35;0.65;;;12.20;99.90;;;;;;4828486;29;20045;-86
2022/10/25 00:49:13;;;;;;;0.35;0.25;;;12.30;99.90;;;;;;4813254;29;20489;-86
2022/10/25 00:51:58;;;;;;;0.65;0.32;;;12.30;99.90;;;;;;4828422;29;20064;-86
2022/10/25 00:54:34;;;;;;;0.55;0.43;;;12.30;99.90;;;;;;4828049;29;20136;-86
2022/10/25 00:57:07;;;;;;;0.20;0.20;;;12.30;99.90;;;;;;4828012;29;20049;-86
2022/10/25 00:59:33;;;;;;;1.33;0.60;;;12.30;99.90;;;;;;4828436;29;20157;-86
2022/10/25 01:01:59;;;;;;;1.50;0.80;;;12.30;99.90;;;;;;4812222;29;20540;-86
2022/10/25 01:04:27;;;;;;;1.27;0.82;;;12.30;99.90;;;;;;4813188;29;20056;-86
2022/10/25 01:06:54;;;;;;;1.13;0.60;;;12.30;99.90;;;;;;4828419;29;20121;-86
2022/10/25 01:09:26;;;;;;;1.65;0.63;;;12.30;99.90;;;;;;4828688;29;20061;-89
2022/10/25 01:11:52;;;;;;;1.58;0.60;;;12.30;99.90;;;;;;4843942;29;20054;-86
2022/10/25 01:14:19;;;;;;;0.50;0.50;;;12.40;99.90;;;;;;4843764;29;20049;-86
2022/10/25 01:17:07;;;;;;;1.75;0.60;;;12.40;99.90;;;;;;4842861;29;20528;-86
2022/10/25 01:19:54;;;;;;;0.82;0.47;;;12.40;99.90;;;;;;4843320;29;20093;-86
2022/10/25 01:22:36;;;;;;;0.30;0.28;;;12.40;99.90;;;;;;4843878;29;20513;-86
2022/10/25 01:25:07;;;;;;;0.60;0.22;;;12.40;99.90;;;;;;4828611;29;20060;-85
2022/10/25 01:27:56;;;;;;;1.10;0.85;;;12.40;99.90;;;;;;4842701;29;20136;-86
2022/10/25 01:30:25;;;;;;;0.45;0.45;;;12.40;99.90;;;;;;4830585;29;20054;-89
2022/10/25 01:32:50;;;;;;;1.42;0.60;;;12.40;99.90;;;;;;4832585;29;20057;-86
2022/10/25 01:35:39;;;;;;;1.90;0.60;;;12.40;99.90;;;;;;4832393;29;20049;-85
2022/10/25 01:38:23;;;;;;;0.38;0.38;;;12.40;99.90;;;;;;4832193;29;20102;-86
2022/10/25 01:41:32;;;;;;;0.70;0.70;;;12.40;99.90;;;;;;4813246;29;20502;-86
2022/10/25 01:44:12;;;;;;;0.38;0.32;;;12.40;99.90;;;;;;4829511;29;20064;-86
2022/10/25 01:46:57;;;;;;;1.00;0.75;;;12.40;99.90;;;;;;4831682;29;20633;-86
2022/10/25 01:49:39;;;;;;;2.05;0.70;;;12.50;99.90;;;;;;4831898;29;20049;-86
2022/10/25 01:52:04;;;;;;;2.67;0.57;;;11.20;99.90;;;;;;4847370;29;20095;-86
2022/10/25 01:54:30;;;;;;;0.67;0.27;;;12.40;99.90;;;;;;4828524;29;20069;-86
2022/10/25 01:57:01;;;;;;;1.03;0.70;;;12.40;99.90;;;;;;4831168;29;20135;-85
2022/10/25 01:59:42;;;;;;;0.93;0.40;;;12.40;99.90;;;;;;4830252;29;20057;-89
2022/10/25 02:02:31;;;;;;;1.67;0.57;;;12.40;99.90;;;;;;4831577;29;20054;-85
2022/10/25 02:05:47;;;;;;;1.17;0.63;;;12.40;99.90;;;;;;4831630;29;20045;-85
2022/10/25 02:08:47;;;;;;;0.55;0.40;;;12.40;99.90;;;;;;4791327;29;20506;-85
2022/10/25 02:11:21;;;;;;;0.47;0.20;;;12.30;99.90;;;;;;4831456;29;20396;-84
2022/10/25 02:14:27;;;;;;;0.22;0.22;;;12.30;99.90;;;;;;4830517;29;20057;-86
2022/10/25 02:17:03;;;;;;;1.23;0.88;;;12.30;99.90;;;;;;4828435;29;20057;-85
2022/10/25 02:19:33;;;;;;;0.82;0.57;;;12.30;99.90;;;;;;4846519;29;20057;-89
2022/10/25 02:22:01;;;;;;;0.75;0.40;;;12.30;99.90;;;;;;4831132;29;20060;-86
2022/10/25 02:24:30;;;;;;;0.98;0.80;;;12.30;99.90;;;;;;4816113;29;20078;-86
2022/10/25 02:26:57;;;;;;;2.80;0.90;;;12.30;99.90;;;;;;4830895;29;20041;-86
2022/10/25 02:29:29;;;;;;;0.85;0.52;;;11.60;99.90;;;;;;4844657;29;20429;-86
2022/10/25 02:31:54;;;;;;;1.33;0.40;;;12.30;99.90;;;;;;4844246;29;20540;-87
2022/10/25 02:34:20;;;;;;;0.57;0.50;;;12.30;99.90;;;;;;4830615;29;20132;-86
2022/10/25 02:36:50;;;;;;;0.43;0.43;;;12.30;99.90;;;;;;4827789;29;20509;-89
2022/10/25 02:39:21;;;;;;;0.32;0.32;;;12.30;99.90;;;;;;4827438;29;20298;-86
2022/10/25 02:41:47;;;;;;;1.85;0.50;;;12.30;99.90;;;;;;4817435;29;20576;-86
2022/10/25 02:44:13;;;;;;;0.77;0.70;;;12.30;99.90;;;;;;4816080;29;20132;-86
2022/10/25 02:46:39;;;;;;;0.50;0.47;;;12.30;99.90;;;;;;4845482;29;20105;-87
2022/10/25 02:49:05;;;;;;;0.65;0.45;;;12.30;99.90;;;;;;4846212;29;20049;-87
2022/10/25 02:51:31;;;;;;;0.73;0.33;;;12.30;99.90;;;;;;4812889;29;20622;-86
2022/10/25 02:53:57;;;;;;;1.65;0.63;;;12.30;99.90;;;;;;4843954;29;20060;-87
2022/10/25 02:56:22;;;;;;;1.15;0.55;;;12.30;99.90;;;;;;4815403;29;20049;-86
2022/10/25 02:58:50;;;;;;;0.55;0.55;;;12.40;99.90;;;;;;4811557;29;20501;-86
2022/10/25 03:01:18;;;;;;;1.20;0.25;;;12.40;99.90;;;;;;4844418;29;20393;-86
2022/10/25 03:03:44;;;;;;;0.45;0.45;;;12.30;99.90;;;;;;4829194;29;20062;-87
2022/10/25 03:06:11;;;;;;;0.60;0.60;;;12.30;99.90;;;;;;4830235;29;20398;-86
2022/10/25 03:08:37;;;;;;;;;;;12.40;99.90;;;;;;4829968;29;20056;-87
2022/10/25 03:11:06;;;;;;;0.30;0.20;;;12.20;99.90;;;;;;4845441;29;20007;-87
2022/10/25 03:13:32;;;;;;;2.83;1.00;;;12.40;99.90;;;;;;4830347;29;20571;-86
2022/10/25 03:15:58;;;;;;;1.70;0.97;;;12.30;99.90;;;;;;4826892;29;20053;-86
2022/10/25 03:18:26;;;;;;;0.63;0.40;;;12.30;99.90;;;;;;4830307;29;20089;-86
2022/10/25 03:20:56;;;;;;;1.00;0.40;;;12.30;99.90;;;;;;4844972;29;20109;-87
2022/10/25 03:23:22;;;;;;;1.10;0.85;;;12.30;99.90;;;;;;4830030;29;20065;-87
2022/10/25 03:25:51;;;;;;;0.40;0.40;;;12.40;99.90;;;;;;4811463;29;20046;-87
2022/10/25 03:28:16;;;;;;;0.45;0.10;;;12.30;99.90;;;;;;4814892;29;20042;-86
2022/10/25 03:30:42;;;;;;;0.90;0.30;;;12.30;99.90;;;;;;4826915;29;20382;-87
2022/10/25 03:33:08;;;;;;;0.20;0.20;;;12.30;99.90;;;;;;4810170;29;20077;-87
2022/10/25 03:35:34;;;;;;;0.93;0.28;;;12.30;99.90;;;;;;4845303;29;20302;-87
2022/10/25 03:38:00;;;;;;;0.30;0.30;;;12.30;99.90;;;;;;4811232;29;20117;-86
2022/10/25 03:40:26;;;;;;;0.30;0.30;;;12.30;99.90;;;;;;4824269;29;20058;-87
2022/10/25 03:42:52;;;;;;;0.55;0.43;;;12.30;99.90;;;;;;4829159;29;20449;-87
2022/10/25 03:45:25;;;;;;;0.27;0.27;;;12.20;99.90;;;;;;4829973;29;20069;-87
2022/10/25 03:47:53;;;;;;;0.40;0.40;;;12.30;99.90;;;;;;4829187;29;20310;-87
2022/10/25 03:50:19;;;;;;;0.93;0.50;;;12.30;99.90;;;;;;4844237;29;20084;-87
2022/10/25 03:52:47;;;;;;;0.63;0.47;;;12.30;99.90;;;;;;4814182;29;20156;-87
2022/10/25 03:55:15;;;;;;;0.90;0.35;;;12.20;99.90;;;;;;4829573;29;20085;-86
2022/10/25 03:57:43;;;;;;;0.30;0.28;;;11.20;99.90;;;;;;4829418;29;20132;-90
2022/10/25 04:00:10;;;;;;;1.52;0.40;;;12.20;99.90;;;;;;4828235;29;20053;-87
2022/10/25 04:02:38;;;;;;;0.10;0.10;;;12.20;99.90;;;;;;4829000;29;20049;-87
2022/10/25 04:05:07;;;;;;;1.38;0.45;;;12.10;99.90;;;;;;4829129;29;20393;-87
2022/10/25 04:07:36;;;;;;;0.22;0.22;;;12.20;99.90;;;;;;4844848;29;20049;-87
2022/10/25 04:10:05;;;;;;;0.52;0.52;;;12.20;99.90;;;;;;4829364;29;20489;-86
2022/10/25 04:12:33;;;;;;;1.20;0.50;;;12.20;99.90;;;;;;4810671;29;20046;-87
2022/10/25 04:15:02;;;;;;;0.77;0.45;;;12.20;99.90;;;;;;4816817;29;20416;-87
2022/10/25 04:17:33;;;;;;;1.10;0.50;;;12.20;99.90;;;;;;4844305;29;20487;-86
2022/10/25 04:19:58;;;;;;;0.20;0.20;;;12.20;99.90;;;;;;4814240;29;20050;-87
2022/10/25 04:22:27;;;;;;;0.47;0.40;;;12.20;99.90;;;;;;4829342;29;20548;-87
2022/10/25 04:24:55;;;;;;;0.47;0.40;;;12.30;99.90;;;;;;4828807;29;20057;-87
2022/10/25 04:27:21;;;;;;;0.40;0.20;;;12.30;99.90;;;;;;4843778;29;20344;-87
2022/10/25 04:29:49;;;;;;;0.73;0.30;;;11.20;99.90;;;;;;4813179;29;20053;-87
2022/10/25 04:32:15;;;;;;;0.30;0.30;;;12.20;99.90;;;;;;4826508;29;20082;-88
2022/10/25 04:34:46;;;;;;;0.50;0.45;;;12.20;99.90;;;;;;4828586;29;20041;-86
2022/10/25 04:37:12;;;;;;;1.20;0.40;;;12.20;99.90;;;;;;4814378;29;20132;-86
2022/10/25 04:39:40;;;;;;;1.13;0.60;;;12.20;99.90;;;;;;4829013;29;20125;-87
2022/10/25 04:42:07;;;;;;;1.27;0.52;;;12.20;99.90;;;;;;4843581;29;20100;-86
2022/10/25 04:44:33;;;;;;;0.93;0.35;;;12.20;99.90;;;;;;4828726;29;20058;-86
2022/10/25 04:46:58;;;;;;;0.40;0.30;;;12.30;99.90;;;;;;4828361;29;20053;-86
2022/10/25 04:49:27;;;;;;;1.70;0.70;;;12.20;99.90;;;;;;4843612;29;20848;-87
2022/10/25 04:51:53;;;;;;;0.65;0.57;;;12.20;99.90;;;;;;4843441;29;20081;-87
2022/10/25 04:54:19;;;;;;;0.40;0.40;;;12.20;99.90;;;;;;4843911;29;20524;-86
2022/10/25 04:56:50;;;;;;;0.97;0.47;;;12.30;99.90;;;;;;4828934;29;20397;-86
2022/10/25 04:59:15;;;;;;;1.35;0.70;;;12.20;99.90;;;;;;4829181;29;20080;-87
2022/10/25 05:01:41;;;;;;;1.03;0.87;;;12.20;99.90;;;;;;4827251;29;20087;-89
2022/10/25 05:04:07;;;;;;;1.50;0.67;;;12.20;99.90;;;;;;4827483;29;20759;-86
2022/10/25 05:06:33;;;;;;;1.10;0.30;;;12.20;99.90;;;;;;4810537;29;20334;-86
2022/10/25 05:08:59;;;;;;;0.30;0.30;;;12.20;99.90;;;;;;4810191;29;20409;-86
2022/10/25 05:11:27;;;;;;;1.63;0.50;;;12.20;99.90;;;;;;4828591;29;20052;-86
2022/10/25 05:13:55;;;;;;;1.25;0.60;;;12.20;99.90;;;;;;4827640;29;20053;-87
2022/10/25 05:16:23;;;;;;;1.25;0.55;;;12.20;99.90;;;;;;4813314;29;20049;-86
2022/10/25 05:18:53;;;;;;;0.52;0.32;;;12.20;99.90;;;;;;4828587;29;20058;-87
2022/10/25 05:21:20;;;;;;;0.73;0.30;;;11.50;99.90;;;;;;4828089;29;20507;-86
2022/10/25 05:23:48;;;;;;;0.50;0.40;;;12.10;99.90;;;;;;4828715;29;20064;-86
2022/10/25 05:26:21;;;;;;;0.57;0.30;;;12.20;99.90;;;;;;4842994;29;20053;-87
2022/10/25 05:28:50;;;;;;;0.63;0.40;;;12.20;99.90;;;;;;4828738;29;20144;-86
2022/10/25 05:31:20;;;;;;;0.68;0.38;;;12.20;99.90;;;;;;4826434;29;20072;-87
2022/10/25 05:33:49;;;;;;;0.45;0.38;;;12.10;99.90;;;;;;4827828;29;20057;-87
2022/10/25 05:36:16;;;;;;;0.82;0.80;;;12.10;99.90;;;;;;4842394;29;20140;-86
2022/10/25 05:38:42;;;;;;;0.85;0.65;;;12.50;99.90;;;;;;4843434;29;20057;-86
2022/10/25 05:41:10;;;;;;;0.63;0.40;;;12.10;99.90;;;;;;4827252;29;20063;-86
2022/10/25 05:43:36;;;;;;;1.17;0.70;;;12.00;99.90;;;;;;4827965;29;20061;-87
2022/10/25 05:46:11;;;;;;;0.80;0.50;;;12.00;99.90;;;;;;4825736;29;20450;-86
2022/10/25 05:48:37;;;;;;;1.02;0.63;;;12.00;99.90;;;;;;4828411;29;20041;-86
2022/10/25 05:51:12;;;;;;;;;;;12.00;99.90;;;;;;4823155;29;20138;-86
2022/10/25 05:53:45;;;;;;;0.28;0.20;;;12.00;99.90;;;;;;4828202;29;19923;-86
2022/10/25 05:56:17;;;;;;;0.82;0.30;;;12.00;99.90;;;;;;4827107;29;20507;-87
2022/10/25 05:58:43;;;;;;;1.63;0.47;;;11.90;99.90;;;;;;4827748;29;20474;-86
2022/10/25 06:01:19;;;;;;;0.45;0.43;;;12.00;99.90;;;;;;4842660;29;20065;-87
2022/10/25 06:03:52;;;;;;;0.73;0.30;;;12.00;99.90;;;;;;4827257;29;20408;-83
2022/10/25 06:06:19;;;;;;;1.00;0.38;;;11.90;99.90;;;;;;4828011;29;20061;-86
2022/10/25 06:08:45;;;;;;;0.10;0.10;;;11.90;99.90;;;;;;4813238;29;20056;-83
2022/10/25 06:11:17;;;;;;;0.52;0.50;;;11.90;99.90;;;;;;4841471;29;20045;-87
2022/10/25 06:13:43;;;;;;;0.20;0.17;;;11.80;99.90;;;;;;4827103;29;20081;-84
2022/10/25 06:16:11;;;;;;;0.03;0.03;;;11.90;99.90;;;;;;4854177;29;20489;-83
2022/10/25 06:18:37;;;;;;;1.08;0.20;;;11.90;99.90;;;;;;4854269;29;20081;-83
2022/10/25 06:21:23;;;;;;;0.38;0.20;;;11.80;99.90;;;;;;4854910;29;20053;-86
2022/10/25 06:23:50;;;;;;;0.60;0.20;;;11.80;99.90;;;;;;4838509;29;20056;-85
2022/10/25 06:26:21;;;;;;;0.30;0.30;;;11.80;99.90;;;;;;4840606;29;20081;-84
2022/10/25 06:28:47;;;;;;;0.30;0.15;;;11.90;99.90;;;;;;4838799;29;20556;-84
2022/10/25 06:31:15;;;;;;;0.57;0.10;;;11.80;99.90;;;;;;4838900;29;20048;-84
2022/10/25 06:33:42;;;;;;;0.40;0.20;;;11.80;99.90;;;;;;4827705;29;20061;-83
2022/10/25 06:36:11;;;;;;;;;;;11.90;99.90;;;;;;4859085;29;20057;-84
2022/10/25 06:38:37;;;;;;;0.45;0.43;;;11.90;99.90;;;;;;4851536;29;19978;-83
2022/10/25 06:41:06;;;;;;;0.55;0.28;;;11.60;99.90;;;;;;4830626;29;20093;-83
2022/10/25 06:43:33;;;;;;;0.40;0.40;;;11.90;99.90;;;;;;4845573;29;20408;-84
2022/10/25 06:46:32;;;;;;;0.93;0.30;;;11.90;99.90;;;;;;4846705;29;20083;-84
2022/10/25 06:48:59;;;;;;;1.20;0.30;;;11.90;99.90;;;;;;4827413;29;20057;-85
2022/10/25 06:51:27;;;;;;;0.32;0.20;;;11.60;99.90;;;;;;4812187;29;20155;-83
2022/10/25 06:53:57;;;;;;;0.55;0.20;;;12.00;99.90;;;;;;4812758;29;20243;-82
2022/10/25 06:56:24;;;;;;;0.32;0.32;;;12.10;99.90;;;;;;4827619;29;20057;-83
2022/10/25 06:58:49;;;;;;;;;;;12.00;99.90;;;;;;4813292;29;20089;-82
2022/10/25 07:01:17;;;;;;;1.15;0.40;;;12.00;99.90;;;;;;4812254;29;20428;-83
2022/10/25 07:03:42;;;;;;;0.70;0.43;;;12.10;99.90;;;;;;4821422;29;20057;-83
2022/10/25 07:06:17;;;;;;;0.70;0.30;;;12.10;99.90;;;;;;4840285;29;20129;-83
2022/10/25 07:08:45;;;;;;;1.17;0.60;;;12.10;99.90;;;;;;4828005;29;20054;-83
2022/10/25 07:11:17;;;;;;;0.50;0.30;;;12.10;99.90;;;;;;4827348;29;20141;-83
2022/10/25 07:13:43;;;;;;;1.00;0.45;;;12.20;99.90;;;;;;4842717;29;20049;-82
2022/10/25 07:16:11;;;;;;;0.82;0.40;;;12.20;99.90;;;;;;4827087;29;20502;-83
2022/10/25 07:18:37;;;;;;;1.35;0.68;;;12.20;99.90;;;;;;4827618;29;20498;-82
2022/10/25 07:21:09;;;;;;;0.73;0.30;;;12.20;99.90;;;;;;4797725;29;20106;-82
2022/10/25 07:23:40;;;;;;;0.47;0.38;;;12.30;99.90;;;;;;4827580;29;20443;-82
2022/10/25 07:26:14;;;;;;;0.65;0.30;;;12.30;99.90;;;;;;4826152;29;20057;-83
2022/10/25 07:28:42;;;;;;;0.55;0.38;;;12.40;99.90;;;;;;4812529;29;20110;-83
2022/10/25 07:31:11;;;;;;;0.20;0.20;;;12.40;99.90;;;;;;4827171;29;20096;-83
2022/10/25 07:33:37;;;;;;;0.28;0.28;;;12.50;99.90;;;;;;4830250;29;20064;-83
2022/10/25 07:36:03;;;;;;;2.13;0.67;;;12.50;99.90;;;;;;4829818;29;20049;-83
2022/10/25 07:38:29;;;;;;;0.17;0.17;;;12.60;99.90;;;;;;4845165;29;20069;-82
2022/10/25 07:40:56;;;;;;;0.20;0.20;;;12.60;99.90;;;;;;4830138;29;20497;-83
2022/10/25 07:43:22;;;;;;;0.93;0.43;;;12.70;99.90;;;;;;4830067;29;20053;-83
2022/10/25 07:45:49;;;;;;;0.15;0.15;;;12.70;99.90;;;;;;4845560;29;20080;-83
2022/10/25 07:48:15;;;;;;;0.25;0.25;;;12.70;99.90;;;;;;4844707;29;20101;-83
2022/10/25 07:50:41;;;;;;;0.45;0.45;;;12.80;99.90;;;;;;4830330;29;20041;-83
2022/10/25 07:53:07;;;;;;;0.67;0.27;;;12.80;99.90;;;;;;4830144;29;20162;-83
2022/10/25 07:55:33;;;;;;;0.55;0.55;;;12.80;99.90;;;;;;4814636;29;20201;-83
2022/10/25 07:58:04;;;;;;;1.17;0.37;;;12.90;99.90;;;;;;4845422;29;20540;-83
2022/10/25 08:00:34;;;;;;;1.58;0.50;;;12.90;99.90;;;;;;4829728;29;20401;-83
2022/10/25 08:03:00;;;;;;;0.40;0.17;;;13.30;99.90;;;;;;4830133;29;20057;-83
2022/10/25 08:05:25;;;;;;;0.47;0.40;;;12.90;99.90;;;;;;4828936;29;20532;-83
2022/10/25 08:07:51;;;;;;;1.50;0.40;;;13.00;99.90;;;;;;4861237;29;20053;-83
2022/10/25 08:10:21;;;;;;;0.60;0.50;;;13.00;99.90;;;;;;4844659;29;20053;-84
2022/10/25 08:12:48;;;;;;;1.33;0.50;;;13.10;99.90;;;;;;4829942;29;20137;-83
2022/10/25 08:15:14;;;;;;;0.50;0.50;;;13.20;99.90;;;;;;4844263;29;20053;-83
2022/10/25 08:17:40;;;;;;;0.90;0.63;;;13.30;99.90;;;;;;4845196;29;20054;-84
2022/10/25 08:20:06;;;;;;;1.93;0.40;;;13.40;99.90;;;;;;4814834;29;20068;-83
2022/10/25 08:22:32;;;;;;;0.57;0.50;;;13.40;99.90;;;;;;4829424;29;20497;-83
2022/10/25 08:24:58;;;;;;;1.03;0.30;;;13.50;99.90;;;;;;4829971;29;20378;-84
2022/10/25 08:27:23;;;;;;;1.00;0.57;;;13.40;99.90;;;;;;4829175;29;20045;-83
2022/10/25 08:29:49;;;;;;;0.65;0.60;;;13.40;99.90;;;;;;4844874;29;20058;-83
2022/10/25 08:32:15;;;;;;;0.87;0.70;;;13.50;99.90;;;;;;4814030;29;20141;-84
2022/10/25 08:34:40;;;;;;;0.87;0.30;;;13.50;99.90;;;;;;4809727;29;20516;-84
2022/10/25 08:37:09;;;;;;;0.40;0.20;;;13.50;99.90;;;;;;4843946;29;20061;-84
2022/10/25 08:39:34;;;;;;;1.00;0.88;;;13.60;99.90;;;;;;4860470;29;20140;-84
2022/10/25 08:42:01;;;;;;;0.57;0.57;;;13.60;99.90;;;;;;4813837;29;20197;-84
2022/10/25 08:44:54;;;;;;;0.65;0.55;;;13.50;99.90;;;;;;4844135;29;20053;-84
2022/10/25 08:47:20;;;;;;;0.63;0.43;;;13.60;99.90;;;;;;4828971;29;20136;-84
2022/10/25 08:50:00;;;;;;;1.57;0.90;;;13.60;99.90;;;;;;4844401;29;20212;-83
2022/10/25 08:53:02;;;;;;;0.50;0.50;;;13.80;99.90;;;;;;4844058;29;20082;-84
2022/10/25 08:55:32;;;;;;;0.85;0.80;;;13.90;99.90;;;;;;4809170;29;20065;-83
2022/10/25 08:57:59;;;;;;;1.15;0.80;;;13.90;99.90;;;;;;4844174;29;20041;-83
2022/10/25 09:00:31;;;;;;;0.63;0.45;;;13.80;99.90;;;;;;4828812;29;20049;-83
2022/10/25 09:02:58;;;;;;;1.13;0.68;;;13.80;99.90;;;;;;4844334;29;20400;-83
2022/10/25 09:05:36;;;;;;;1.58;1.05;;;13.80;99.90;;;;;;4843314;29;20053;-84
2022/10/25 09:08:11;;;;;;;0.75;0.47;;;13.80;99.90;;;;;;4859465;29;20105;-83
2022/10/25 09:11:27;;;;;;;1.08;0.47;;;13.80;99.90;;;;;;4828750;29;20647;-83
2022/10/25 09:14:16;;;;;;;0.60;0.20;;;13.90;99.90;;;;;;4829821;29;20140;-83
2022/10/25 09:17:05;;;;;;;0.70;0.40;;;13.90;99.90;;;;;;4828679;29;20049;-83
2022/10/25 09:19:32;;;;;;;0.85;0.50;;;14.00;99.90;;;;;;4828691;29;20132;-83
2022/10/25 09:22:04;;;;;;;0.60;0.43;;;14.10;99.90;;;;;;4828930;29;20057;-83
2022/10/25 09:24:45;;;;;;;0.30;0.30;;;14.20;99.90;;;;;;4843474;29;20057;-83
2022/10/25 09:27:34;;;;;;;0.30;0.30;;;14.40;99.90;;;;;;4843647;29;20128;-83
2022/10/25 09:30:03;;;;;;;0.63;0.40;;;14.50;99.90;;;;;;4829143;29;20148;-83
2022/10/25 09:32:40;;;;;;;0.57;0.40;;;14.60;99.90;;;;;;4828477;29;20501;-83
2022/10/25 09:35:23;;;;;;;0.47;0.40;;;14.80;99.90;;;;;;4827599;29;20126;-83
2022/10/25 09:37:59;;;;;;;0.43;0.43;;;14.90;99.90;;;;;;4843185;29;20053;-83
2022/10/25 09:40:37;;;;;;;1.55;0.73;;;15.00;99.90;;;;;;4843109;29;20102;-84
2022/10/25 09:43:15;;;;;;;0.75;0.40;;;15.00;99.90;;;;;;4843696;29;20065;-83
2022/10/25 09:45:49;;;;;;;0.43;0.30;;;15.10;99.90;;;;;;4843534;29;20765;-84
2022/10/25 09:48:20;;;;;;;0.73;0.35;;;15.10;99.90;;;;;;4843739;29;20128;-84
2022/10/25 09:50:59;;;;;;;0.90;0.50;;;15.00;99.90;;;;;;4831485;29;20091;-83
2022/10/25 09:53:25;;;;;;;2.15;0.70;;;15.00;99.90;;;;;;4831631;29;20556;-84
2022/10/25 09:55:56;;;;;;;0.30;0.30;;;14.90;99.90;;;;;;4832328;29;20084;-84
2022/10/25 09:58:24;;;;;;;0.57;0.40;;;15.00;99.90;;;;;;4847429;29;20493;-83
2022/10/25 10:00:53;;;;;;;0.65;0.50;;;15.10;99.90;;;;;;4832071;29;20144;-84
2022/10/25 10:03:20;;;;;;;0.38;0.38;;;15.00;99.90;;;;;;4831998;29;20144;-84
2022/10/25 10:05:54;;;;;;;0.43;0.43;;;15.00;99.90;;;;;;4830450;29;20060;-83
2022/10/25 10:08:19;;;;;;;0.38;0.38;;;15.00;99.90;;;;;;4847057;29;20049;-84
2022/10/25 10:10:47;;;;;;;0.30;0.30;;;15.00;99.90;;;;;;4831527;29;20084;-84
2022/10/25 10:13:30;;;;;;;0.40;0.28;;;14.90;99.90;;;;;;4847273;29;20518;-83
2022/10/25 10:16:03;;;;;;;0.55;0.45;;;14.90;99.90;;;;;;4847126;29;20108;-84
2022/10/25 10:18:33;;;;;;;0.85;0.82;;;14.80;99.90;;;;;;4831447;29;20105;-84
2022/10/25 10:21:18;;;;;;;0.30;0.30;;;13.90;99.90;;;;;;4831679;29;20060;-83
2022/10/25 10:23:47;;;;;;;0.30;0.30;;;14.70;99.90;;;;;;4846664;29;20053;-84
2022/10/25 10:26:36;;;;;;;0.35;0.35;;;14.70;99.90;;;;;;4831311;29;20496;-83
2022/10/25 10:29:07;;;;;;;0.40;0.40;;;14.80;99.90;;;;;;4846864;29;20076;-84
2022/10/25 10:31:36;;;;;;;0.80;0.40;;;14.80;99.90;;;;;;4831267;29;20109;-84
2022/10/25 10:34:02;;;;;;;0.32;0.30;;;15.00;99.90;;;;;;4831492;29;20085;-83
2022/10/25 10:36:32;;;;;;;0.35;0.32;;;15.00;99.90;;;;;;4829297;29;20080;-88
2022/10/25 10:39:22;;;;;;;0.65;0.40;;;15.10;99.90;;;;;;4830569;29;20049;-84
2022/10/25 10:42:17;;;;;;;0.80;0.32;;;15.00;99.90;;;;;;4830133;29;20122;-85
2022/10/25 10:44:59;;;;;;;0.20;0.13;;;15.00;99.90;;;;;;4845947;29;20056;-84
2022/10/25 10:47:28;;;;;;;0.50;0.22;;;15.20;99.90;;;;;;4845670;29;20056;-84
2022/10/25 10:49:54;;;;;;;0.30;0.20;;;15.50;99.90;;;;;;4845780;29;20045;-84
2022/10/25 10:52:31;;;;;;;0.53;0.20;;;15.70;99.90;;;;;;4831046;29;20121;-83
2022/10/25 10:54:58;;;;;;;0.25;0.20;;;15.70;99.90;;;;;;4845872;29;20106;-84
2022/10/25 10:57:34;;;;;;;0.60;0.22;;;15.60;99.90;;;;;;4830820;29;20446;-84
2022/10/25 11:00:01;;;;;;;0.30;0.10;;;15.40;99.90;;;;;;4830771;29;20053;-84
2022/10/25 11:02:29;;;;;;;;;;;15.30;99.90;;;;;;4831307;29;20136;-83
2022/10/25 11:04:56;;;;;;;0.22;0.22;;;15.30;99.90;;;;;;4829580;29;19975;-86
2022/10/25 11:07:32;;;;;;;0.30;0.30;;;15.20;99.90;;;;;;4830169;29;20042;-84
2022/10/25 11:10:13;;;;;;;0.28;0.20;;;15.20;99.90;;;;;;4844515;29;20053;-83
2022/10/25 11:12:39;;;;;;;0.32;0.32;;;15.60;99.90;;;;;;4830112;29;20085;-83
2022/10/25 11:15:15;;;;;;;0.30;0.30;;;16.00;99.90;;;;;;4830534;29;20095;-83
2022/10/25 11:17:53;;;;;;;0.32;0.20;;;16.50;99.90;;;;;;4829959;29;20140;-85
2022/10/25 11:20:44;;;;;;;0.55;0.40;;;16.90;99.90;;;;;;4846035;29;20064;-84
2022/10/25 11:23:21;;;;;;;0.20;0.20;;;17.20;99.90;;;;;;4845867;29;20053;-85
2022/10/25 11:25:56;;;;;;;;;;;17.20;99.90;;;;;;4845949;29;20068;-85
2022/10/25 11:28:58;;;;;;;0.57;0.38;;;17.10;99.90;;;;;;4830192;29;19931;-86
2022/10/25 11:31:49;;;;;;;0.15;0.10;;;17.10;99.90;;;;;;4832875;29;20082;-83
2022/10/25 11:34:18;;;;;;;0.47;0.35;;;17.30;99.90;;;;;;4847396;29;20182;-83
2022/10/25 11:37:12;;;;;;;0.35;0.22;;;17.40;99.90;;;;;;4847210;29;20083;-84
2022/10/25 11:39:45;;;;;;;0.40;0.40;;;17.40;99.90;;;;;;4847715;29;20437;-85
2022/10/25 11:42:23;;;;;;;0.10;0.10;;;17.40;99.90;;;;;;4854159;29;20174;-83
2022/10/25 11:45:19;;;;;;;0.30;0.30;;;17.30;99.90;;;;;;4837183;29;20138;-83
2022/10/25 11:47:54;;;;;;;0.68;0.65;;;17.10;99.90;;;;;;4852983;29;20401;-84
2022/10/25 11:50:29;;;;;;;0.20;0.20;;;17.30;99.90;;;;;;4833390;29;20060;-83
2022/10/25 11:53:04;;;;;;;0.30;0.30;;;17.50;99.90;;;;;;4831158;29;20061;-82
2022/10/25 11:55:32;;;;;;;0.95;0.85;;;17.50;99.90;;;;;;4829427;29;20053;-82
2022/10/25 11:58:35;;;;;;;0.10;0.10;;;17.20;99.90;;;;;;4844076;29;20050;-82
2022/10/25 12:01:18;;;;;;;0.20;0.20;;;17.00;99.90;;;;;;4829838;29;20113;-83
2022/10/25 12:04:05;;;;;;;0.20;0.20;;;17.00;99.90;;;;;;4829156;29;20132;-83
2022/10/25 12:06:56;;;;;;;0.20;0.20;;;17.00;99.90;;;;;;4828395;29;20084;-83
2022/10/25 12:09:37;;;;;;;1.05;0.88;;;17.20;99.90;;;;;;4821155;29;20152;-83
2022/10/25 12:12:12;;;;;;;0.30;0.30;;;17.30;99.90;;;;;;4828732;29;20075;-83
2022/10/25 12:14:42;;;;;;;0.10;0.10;;;17.20;99.90;;;;;;4845110;29;20160;-83
2022/10/25 12:17:20;;;;;;;0.47;0.28;;;17.00;99.90;;;;;;4844970;29;20042;-82
2022/10/25 12:19:48;;;;;;;0.25;0.25;;;16.80;99.90;;;;;;4840045;29;20053;-83
2022/10/25 12:22:22;;;;;;;0.30;0.30;;;16.70;99.90;;;;;;4829758;29;20053;-82
2022/10/25 12:25:12;;;;;;;0.20;0.20;;;16.50;99.90;;;;;;4844524;29;20052;-83
2022/10/25 12:27:41;;;;;;;0.20;0.20;;;16.50;99.90;;;;;;4829035;29;20053;-82
2022/10/25 12:30:14;;;;;;;0.20;0.13;;;16.30;99.90;;;;;;4828708;29;20072;-83
2022/10/25 12:32:50;;;;;;;0.32;0.20;;;16.20;99.90;;;;;;4844381;29;20062;-82
2022/10/25 12:35:18;;;;;;;0.25;0.25;;;16.10;99.90;;;;;;4829637;29;20059;-83
2022/10/25 12:37:53;;;;;;;0.38;0.38;;;16.10;99.90;;;;;;4828261;29;20045;-81
2022/10/25 12:40:22;;;;;;;0.15;0.15;;;16.10;99.90;;;;;;4842532;29;20057;-82
2022/10/25 12:42:59;;;;;;;0.20;0.20;;;16.10;99.90;;;;;;4826734;29;20074;-83
2022/10/25 12:45:34;;;;;;;0.08;0.08;;;16.20;99.90;;;;;;4854711;29;20064;-83
2022/10/25 12:48:00;;;;;;;0.00;0.00;;;16.30;99.90;;;;;;4840774;29;20424;-81
2022/10/25 12:50:50;;;;;;;0.30;0.30;;;16.50;99.90;;;;;;4828816;29;20134;-80
2022/10/25 12:53:47;;;;;;;0.20;0.20;;;16.60;99.90;;;;;;4844293;29;20173;-80
2022/10/25 12:56:22;;;;;;;0.20;0.20;;;17.00;99.90;;;;;;4844254;29;20501;-80
2022/10/25 12:59:02;;;;;;;0.20;0.20;;;17.30;99.90;;;;;;4829090;29;20060;-83
2022/10/25 13:02:06;;;;;;;0.20;0.20;;;17.30;99.90;;;;;;4829035;29;20474;-80
2022/10/25 13:05:01;;;;;;;1.50;0.30;;;17.20;99.90;;;;;;4788582;29;20057;-80
2022/10/25 13:07:30;;;;;;;0.20;0.20;;;16.90;99.90;;;;;;4787725;29;20047;-82
2022/10/25 13:10:06;;;;;;;0.22;0.20;;;16.70;99.90;;;;;;4818258;29;20131;-80
2022/10/25 13:12:32;;;;;;;0.45;0.40;;;16.40;99.90;;;;;;4826062;29;20057;-80
2022/10/25 13:14:59;;;;;;;0.05;0.05;;;16.30;99.90;;;;;;4841663;29;20042;-80